Time;durP1;ratioP1;P1;durP2;ratioP2;P2;SDS_P1;SDS_P2;PMS_P1;PMS_P2;Temp;Humidity;BMP_temperature;BMP_pressure;BME280_temperature;BME280_humidity;BME280_pressure;Samples;Min_cycle;Max_cycle;Signal;HPM_P1;HPM_P2
2021/01/20 00:01:25;;;;;;;1.70;1.60;;;8.10;1.00;;;;;;5119717;27;20181;-59
2021/01/20 00:03:50;;;;;;;2.77;2.50;;;8.00;1.00;;;;;;5113629;27;20439;-58
2021/01/20 00:06:16;;;;;;;2.00;1.80;;;8.00;1.00;;;;;;5133226;27;20658;-58
2021/01/20 00:08:41;;;;;;;2.27;1.53;;;7.90;1.00;;;;;;5112416;27;20173;-57
2021/01/20 00:11:07;;;;;;;2.00;1.70;;;7.90;1.00;;;;;;5112720;28;20694;-59
2021/01/20 00:13:33;;;;;;;1.90;1.80;;;8.00;1.00;;;;;;5113326;27;20294;-58
2021/01/20 00:15:58;;;;;;;1.70;1.60;;;8.10;1.00;;;;;;5122680;27;20178;-58
2021/01/20 00:18:24;;;;;;;1.87;1.77;;;8.10;1.00;;;;;;5116762;27;20197;-58
2021/01/20 00:20:49;;;;;;;2.00;1.90;;;8.00;1.00;;;;;;5109945;28;20201;-58
2021/01/20 00:23:15;;;;;;;1.87;1.60;;;7.90;1.00;;;;;;5122406;27;20515;-57
2021/01/20 00:25:41;;;;;;;2.93;2.00;;;8.10;1.00;;;;;;5113099;27;20186;-58
2021/01/20 00:28:07;;;;;;;1.87;1.77;;;8.10;1.00;;;;;;5105904;27;20174;-58
2021/01/20 00:30:32;;;;;;;2.07;1.90;;;8.10;1.00;;;;;;5112492;28;20514;-58
2021/01/20 00:32:59;;;;;;;2.57;2.37;;;8.00;1.00;;;;;;5126469;27;20224;-57
2021/01/20 00:35:25;;;;;;;2.23;2.03;;;7.90;1.00;;;;;;5132602;27;20631;-59
2021/01/20 00:37:50;;;;;;;2.67;2.03;;;7.90;1.00;;;;;;5121176;28;20443;-59
2021/01/20 00:40:17;;;;;;;2.40;2.20;;;7.90;1.00;;;;;;5112259;28;20917;-57
2021/01/20 00:42:43;;;;;;;2.30;2.10;;;7.80;1.00;;;;;;5110826;28;20220;-59
2021/01/20 00:45:10;;;;;;;1.90;1.80;;;7.80;1.00;;;;;;5115574;28;20435;-58
2021/01/20 00:47:36;;;;;;;1.90;1.80;;;7.60;1.00;;;;;;5115206;28;20773;-57
2021/01/20 00:50:03;;;;;;;2.50;2.30;;;7.30;1.00;;;;;;5132443;28;20697;-57
2021/01/20 00:52:28;;;;;;;2.73;2.53;;;7.20;1.00;;;;;;5132538;27;20205;-57
2021/01/20 00:54:54;;;;;;;2.07;1.90;;;7.00;1.00;;;;;;5114725;28;20477;-56
2021/01/20 00:57:19;;;;;;;2.60;2.40;;;6.90;1.00;;;;;;5120174;28;20178;-57
2021/01/20 00:59:45;;;;;;;2.00;1.90;;;6.90;1.00;;;;;;5109050;28;20178;-58
2021/01/20 01:02:11;;;;;;;2.47;2.27;;;6.70;1.00;;;;;;5110389;28;20188;-58
2021/01/20 01:04:36;;;;;;;4.50;2.83;;;6.80;1.00;;;;;;5112022;28;20660;-58
2021/01/20 01:07:02;;;;;;;12.57;5.30;;;6.90;1.00;;;;;;5123671;28;20181;-57
2021/01/20 01:09:27;;;;;;;8.77;5.23;;;6.90;1.00;;;;;;5125186;28;20181;-58
2021/01/20 01:11:53;;;;;;;5.90;4.00;;;6.80;1.00;;;;;;5116410;28;20552;-58
2021/01/20 01:14:19;;;;;;;8.17;4.93;;;6.70;1.00;;;;;;5114466;28;20178;-58
2021/01/20 01:16:44;;;;;;;6.00;3.87;;;6.60;1.00;;;;;;5115425;28;20187;-58
2021/01/20 01:19:10;;;;;;;8.60;5.63;;;6.50;1.00;;;;;;5113574;28;21041;-58
2021/01/20 01:21:35;;;;;;;9.77;5.70;;;6.70;1.00;;;;;;5115112;28;20265;-58
2021/01/20 01:24:01;;;;;;;4.70;3.87;;;6.80;1.00;;;;;;5132124;28;20177;-57
2021/01/20 01:26:27;;;;;;;4.23;3.83;;;6.80;1.00;;;;;;5121676;28;20182;-58
2021/01/20 01:28:53;;;;;;;3.87;3.23;;;6.80;1.00;;;;;;5118988;28;20189;-58
2021/01/20 01:31:18;;;;;;;4.73;3.67;;;6.80;1.00;;;;;;5109695;28;20478;-58
2021/01/20 01:33:44;;;;;;;3.40;3.10;;;6.70;1.00;;;;;;5107428;28;20225;-58
2021/01/20 01:36:10;;;;;;;3.80;3.40;;;6.70;1.00;;;;;;5106143;28;20210;-58
2021/01/20 01:38:36;;;;;;;3.50;3.17;;;6.70;1.00;;;;;;5107633;28;20323;-57
2021/01/20 01:41:01;;;;;;;3.47;3.10;;;6.60;1.00;;;;;;5109182;28;21035;-56
2021/01/20 01:43:27;;;;;;;3.73;3.43;;;6.60;1.00;;;;;;5112366;27;20189;-58
2021/01/20 01:45:53;;;;;;;3.70;3.40;;;6.50;1.00;;;;;;5115300;28;20197;-58
2021/01/20 01:48:19;;;;;;;2.63;2.37;;;6.40;1.00;;;;;;5114394;28;20296;-58
2021/01/20 01:50:47;;;;;;;4.53;3.83;;;6.40;1.00;;;;;;5112343;27;20182;-58
2021/01/20 01:53:13;;;;;;;4.07;3.63;;;6.50;1.00;;;;;;5116458;27;20197;-57
2021/01/20 01:55:39;;;;;;;3.80;3.50;;;6.50;1.00;;;;;;5126390;27;20431;-56
2021/01/20 01:58:05;;;;;;;3.80;3.50;;;6.50;1.00;;;;;;5134781;27;20485;-57
2021/01/20 02:00:33;;;;;;;4.07;3.67;;;6.50;1.00;;;;;;5127520;27;20432;-58
2021/01/20 02:03:00;;;;;;;5.30;4.23;;;6.50;1.00;;;;;;5124290;27;20519;-58
2021/01/20 02:05:26;;;;;;;4.70;3.20;;;6.30;1.00;;;;;;5115044;27;20428;-57
2021/01/20 02:07:53;;;;;;;3.70;3.40;;;6.30;1.00;;;;;;5122081;27;20449;-57
2021/01/20 02:10:19;;;;;;;3.80;2.80;;;6.20;1.00;;;;;;5119658;27;20438;-57
2021/01/20 02:13:08;;;;;;;3.83;2.60;;;6.10;1.00;;;;;;5120709;27;20554;-58
2021/01/20 02:15:57;;;;;;;3.07;2.77;;;6.20;1.00;;;;;;5126484;27;20630;-58
2021/01/20 02:18:26;;;;;;;2.20;2.03;;;6.30;1.00;;;;;;5124371;27;20435;-58
2021/01/20 02:21:35;;;;;;;3.20;2.90;;;6.20;1.00;;;;;;5134038;27;20427;-58
2021/01/20 02:24:11;;;;;;;2.80;2.57;;;6.20;1.00;;;;;;5095497;27;20433;-59
2021/01/20 02:26:59;;;;;;;2.83;2.40;;;6.10;1.00;;;;;;5119137;27;20790;-58
2021/01/20 02:29:36;;;;;;;1.90;1.80;;;6.10;1.00;;;;;;5114432;27;20420;-58
2021/01/20 02:32:05;;;;;;;2.27;2.10;;;6.20;1.00;;;;;;5122705;27;20473;-57
2021/01/20 02:34:32;;;;;;;1.63;1.53;;;6.30;1.00;;;;;;5114258;27;20519;-58
2021/01/20 02:36:59;;;;;;;2.03;1.73;;;6.30;1.00;;;;;;5117511;27;20777;-58
2021/01/20 02:39:25;;;;;;;1.40;1.30;;;6.40;1.00;;;;;;5117344;27;20485;-58
2021/01/20 02:41:59;;;;;;;1.33;1.30;;;6.60;1.00;;;;;;5117352;27;20520;-58
2021/01/20 02:44:25;;;;;;;2.40;1.20;;;6.80;1.00;;;;;;5125615;27;20531;-57
2021/01/20 02:46:51;;;;;;;1.57;1.27;;;7.20;1.00;;;;;;5126841;27;20527;-57
2021/01/20 02:49:17;;;;;;;2.27;1.13;;;7.20;1.00;;;;;;5118724;27;20683;-59
2021/01/20 02:52:12;;;;;;;2.03;1.30;;;7.20;1.00;;;;;;5116048;28;20434;-58
2021/01/20 02:54:39;;;;;;;1.93;1.53;;;7.30;1.00;;;;;;5123290;27;20189;-58
2021/01/20 02:57:06;;;;;;;2.87;1.40;;;7.30;1.00;;;;;;5126210;27;20440;-57
2021/01/20 02:59:33;;;;;;;1.00;0.90;;;7.30;1.00;;;;;;5122588;27;20444;-57
2021/01/20 03:02:05;;;;;;;1.60;1.50;;;7.20;1.00;;;;;;5133572;27;20434;-57
2021/01/20 03:04:32;;;;;;;0.73;0.70;;;7.10;1.00;;;;;;5118559;27;20413;-57
2021/01/20 03:07:00;;;;;;;2.30;1.10;;;7.20;1.00;;;;;;5118173;27;20486;-58
2021/01/20 03:09:25;;;;;;;1.13;1.10;;;7.30;1.00;;;;;;5113911;27;20496;-58
2021/01/20 03:11:52;;;;;;;1.43;1.20;;;7.10;1.00;;;;;;5124297;27;20882;-57
2021/01/20 03:14:22;;;;;;;1.53;1.43;;;7.10;1.00;;;;;;5127401;27;20181;-58
2021/01/20 03:16:49;;;;;;;1.80;1.13;;;7.20;1.00;;;;;;5124457;27;20432;-59
2021/01/20 03:19:14;;;;;;;1.33;1.00;;;7.30;1.00;;;;;;5129683;27;20504;-58
2021/01/20 03:21:40;;;;;;;2.17;1.23;;;7.60;1.00;;;;;;5132775;27;20423;-57
2021/01/20 03:24:07;;;;;;;2.90;1.10;;;7.70;1.00;;;;;;5130597;27;20267;-58
2021/01/20 03:26:32;;;;;;;2.03;1.37;;;7.70;1.00;;;;;;5112792;27;20440;-58
2021/01/20 03:28:58;;;;;;;0.97;0.70;;;7.60;1.00;;;;;;5123952;27;20413;-58
2021/01/20 03:31:24;;;;;;;1.90;0.80;;;7.40;1.00;;;;;;5125140;27;20544;-57
2021/01/20 03:33:50;;;;;;;1.33;0.83;;;7.40;1.00;;;;;;5128886;27;20198;-57
2021/01/20 03:36:15;;;;;;;1.00;0.97;;;7.40;1.00;;;;;;5115966;27;20186;-58
2021/01/20 03:38:41;;;;;;;0.87;0.80;;;7.70;1.00;;;;;;5114626;27;20261;-57
2021/01/20 03:41:07;;;;;;;0.80;0.60;;;7.80;1.00;;;;;;5127312;27;20266;-57
2021/01/20 03:43:32;;;;;;;3.27;0.93;;;7.90;1.00;;;;;;5128417;27;20458;-57
2021/01/20 03:45:58;;;;;;;2.47;0.77;;;7.90;1.00;;;;;;5121324;27;20220;-58
2021/01/20 03:48:23;;;;;;;1.40;1.30;;;7.80;1.00;;;;;;5116853;27;20182;-57
2021/01/20 03:50:49;;;;;;;1.27;0.77;;;7.70;1.00;;;;;;5115664;27;20659;-56
2021/01/20 03:53:15;;;;;;;2.40;1.03;;;7.50;1.00;;;;;;5112090;28;20293;-57
2021/01/20 03:55:40;;;;;;;1.60;1.50;;;7.30;1.00;;;;;;5127195;27;20174;-58
2021/01/20 03:58:06;;;;;;;2.50;1.00;;;7.20;1.00;;;;;;5119832;27;20185;-57
2021/01/20 04:00:31;;;;;;;1.53;0.83;;;7.20;1.00;;;;;;5122505;27;20174;-57
2021/01/20 04:02:57;;;;;;;1.77;0.80;;;7.20;1.00;;;;;;5126678;27;20662;-57
2021/01/20 04:05:23;;;;;;;1.43;1.33;;;7.40;1.00;;;;;;5127193;27;20288;-57
2021/01/20 04:07:48;;;;;;;1.13;0.90;;;7.60;1.00;;;;;;5115601;27;20234;-57
2021/01/20 04:10:14;;;;;;;0.90;0.77;;;7.40;1.00;;;;;;5119504;27;20265;-57
2021/01/20 04:12:40;;;;;;;0.90;0.90;;;7.50;1.00;;;;;;5123577;27;20205;-57
2021/01/20 04:15:07;;;;;;;1.23;1.13;;;7.70;1.00;;;;;;5113828;27;20190;-57
2021/01/20 04:17:34;;;;;;;1.00;0.90;;;7.80;1.00;;;;;;5125162;27;20178;-57
2021/01/20 04:19:59;;;;;;;1.70;1.10;;;7.70;1.00;;;;;;5116579;27;20782;-58
2021/01/20 04:22:25;;;;;;;1.23;1.13;;;7.60;1.00;;;;;;5133006;27;20522;-57
2021/01/20 04:24:51;;;;;;;0.80;0.70;;;7.40;1.00;;;;;;5111452;28;20201;-57
2021/01/20 04:27:17;;;;;;;0.60;0.57;;;7.40;1.00;;;;;;5111748;28;20921;-57
2021/01/20 04:29:42;;;;;;;1.80;0.87;;;7.30;1.00;;;;;;5120063;27;20195;-58
2021/01/20 04:32:08;;;;;;;0.80;0.80;;;7.30;1.00;;;;;;5131008;27;20635;-58
2021/01/20 04:34:34;;;;;;;0.87;0.87;;;7.30;1.00;;;;;;5114848;27;20174;-58
2021/01/20 04:37:00;;;;;;;1.10;0.83;;;7.20;1.00;;;;;;5118815;27;20181;-56
2021/01/20 04:39:26;;;;;;;0.90;0.90;;;7.00;1.00;;;;;;5132605;27;20177;-57
2021/01/20 04:41:52;;;;;;;1.60;1.10;;;6.90;1.00;;;;;;5130239;27;20177;-57
2021/01/20 04:44:18;;;;;;;1.90;1.00;;;6.80;1.00;;;;;;5110885;28;20778;-58
2021/01/20 04:46:45;;;;;;;2.00;0.90;;;6.80;1.00;;;;;;5111930;28;20178;-57
2021/01/20 04:49:14;;;;;;;2.13;1.03;;;6.60;1.00;;;;;;5124275;27;20519;-58
2021/01/20 04:51:42;;;;;;;2.63;1.00;;;6.50;1.00;;;;;;5111423;28;20831;-59
2021/01/20 04:54:11;;;;;;;3.53;1.37;;;6.50;1.00;;;;;;5111690;28;20439;-58
2021/01/20 04:56:38;;;;;;;1.10;1.00;;;6.50;1.00;;;;;;5111705;28;20829;-58
2021/01/20 04:59:05;;;;;;;1.70;1.20;;;6.50;1.00;;;;;;5111566;28;20838;-57
2021/01/20 05:01:32;;;;;;;1.33;1.23;;;6.50;1.00;;;;;;5111837;28;20452;-57
2021/01/20 05:04:03;;;;;;;1.63;1.30;;;6.50;1.00;;;;;;5120346;28;20500;-57
2021/01/20 05:06:29;;;;;;;1.40;1.30;;;6.30;1.00;;;;;;5129982;27;20792;-57
2021/01/20 05:08:56;;;;;;;2.03;1.40;;;6.20;1.00;;;;;;5124672;27;20444;-58
2021/01/20 05:11:42;;;;;;;1.40;1.30;;;6.10;1.00;;;;;;5111687;28;20442;-57
2021/01/20 05:14:18;;;;;;;1.60;1.27;;;6.00;1.00;;;;;;5114043;28;20442;-57
2021/01/20 05:16:49;;;;;;;3.47;1.47;;;6.10;1.00;;;;;;5115647;27;20438;-59
2021/01/20 05:19:15;;;;;;;2.93;1.70;;;6.10;1.00;;;;;;5126604;27;20762;-58
2021/01/20 05:21:41;;;;;;;2.27;1.90;;;6.10;1.00;;;;;;5115770;28;20546;-57
2021/01/20 05:24:20;;;;;;;1.97;1.73;;;6.10;1.00;;;;;;5114954;28;20967;-58
2021/01/20 05:26:47;;;;;;;2.07;1.90;;;6.10;1.00;;;;;;5116628;27;20535;-58
2021/01/20 05:29:14;;;;;;;2.53;2.10;;;6.10;1.00;;;;;;5123468;27;20428;-58
2021/01/20 05:31:40;;;;;;;2.20;1.93;;;6.10;1.00;;;;;;5131705;27;20537;-56
2021/01/20 05:34:22;;;;;;;2.20;2.00;;;6.20;1.00;;;;;;5121893;27;20436;-57
2021/01/20 05:37:10;;;;;;;2.47;2.27;;;6.30;1.00;;;;;;5115639;28;20862;-57
2021/01/20 05:39:39;;;;;;;3.40;2.10;;;6.40;1.00;;;;;;5121559;27;20439;-60
2021/01/20 05:42:10;;;;;;;3.03;1.80;;;6.50;1.00;;;;;;5115114;27;20432;-61
2021/01/20 05:44:37;;;;;;;2.23;1.80;;;6.60;1.00;;;;;;5115245;28;20449;-61
2021/01/20 05:47:11;;;;;;;2.50;2.00;;;6.60;1.00;;;;;;5113684;28;20482;-62
2021/01/20 05:49:37;;;;;;;3.10;2.27;;;6.50;1.00;;;;;;5112324;28;20438;-61
2021/01/20 05:52:12;;;;;;;6.37;2.97;;;6.50;1.00;;;;;;5115002;28;20511;-58
2021/01/20 05:54:39;;;;;;;4.10;2.67;;;6.40;1.00;;;;;;5115992;28;20506;-58
2021/01/20 05:57:23;;;;;;;3.03;2.73;;;6.40;1.00;;;;;;5129061;27;20712;-58
2021/01/20 05:59:50;;;;;;;3.20;2.63;;;6.30;1.00;;;;;;5136482;27;20419;-58
2021/01/20 06:02:17;;;;;;;2.77;2.57;;;6.30;1.00;;;;;;5122352;27;20523;-58
2021/01/20 06:04:43;;;;;;;2.77;2.53;;;6.40;1.00;;;;;;5115914;28;20526;-58
2021/01/20 06:07:13;;;;;;;2.87;2.20;;;6.40;1.00;;;;;;5114410;28;20519;-58
2021/01/20 06:09:44;;;;;;;2.50;2.30;;;6.40;1.00;;;;;;5115504;28;20442;-58
2021/01/20 06:12:10;;;;;;;3.03;2.57;;;6.40;1.00;;;;;;5121347;27;20478;-59
2021/01/20 06:14:37;;;;;;;2.33;2.03;;;6.50;1.00;;;;;;5123973;27;20837;-59
2021/01/20 06:17:20;;;;;;;2.63;1.93;;;6.60;1.00;;;;;;5119486;27;20439;-58
2021/01/20 06:19:48;;;;;;;2.50;2.30;;;6.50;1.00;;;;;;5119791;27;20479;-59
2021/01/20 06:22:18;;;;;;;2.10;1.80;;;6.50;1.00;;;;;;5124049;27;20435;-58
2021/01/20 06:24:46;;;;;;;2.40;2.20;;;6.50;1.00;;;;;;5122475;27;20784;-60
2021/01/20 06:27:31;;;;;;;2.30;2.10;;;6.60;1.00;;;;;;5125661;27;20442;-58
2021/01/20 06:30:26;;;;;;;4.13;2.53;;;6.60;1.00;;;;;;5126662;27;20422;-59
2021/01/20 06:32:53;;;;;;;3.90;2.17;;;6.60;1.00;;;;;;5117914;27;20477;-58
2021/01/20 06:35:19;;;;;;;4.83;2.87;;;6.70;1.00;;;;;;5125558;27;20836;-59
2021/01/20 06:37:47;;;;;;;5.73;2.10;;;6.90;1.00;;;;;;5118105;27;20459;-59
2021/01/20 06:40:21;;;;;;;3.60;3.00;;;7.00;1.00;;;;;;5119378;27;20432;-59
2021/01/20 06:42:48;;;;;;;5.17;3.10;;;6.90;1.00;;;;;;5124180;27;20437;-58
2021/01/20 06:45:25;;;;;;;3.87;2.60;;;7.00;1.00;;;;;;5123310;27;20466;-58
2021/01/20 06:48:00;;;;;;;4.80;2.30;;;7.00;1.00;;;;;;5127623;27;20435;-59
2021/01/20 06:50:55;;;;;;;7.93;2.80;;;7.10;1.00;;;;;;5119178;27;20753;-58
2021/01/20 06:53:21;;;;;;;8.73;3.70;;;7.20;1.00;;;;;;5121389;27;20463;-59
2021/01/20 06:55:47;;;;;;;8.13;4.80;;;7.30;1.00;;;;;;5118257;27;20769;-58
2021/01/20 06:58:26;;;;;;;24.17;9.10;;;7.40;1.00;;;;;;5122831;27;20170;-59
2021/01/20 07:01:01;;;;;;;57.27;17.47;;;7.50;1.00;;;;;;5131517;27;20201;-58
2021/01/20 07:03:40;;;;;;;18.63;7.63;;;7.40;1.00;;;;;;5130280;27;20430;-59
2021/01/20 07:06:38;;;;;;;4.37;1.37;;;7.50;1.00;;;;;;5135067;27;20430;-59
2021/01/20 07:09:09;;;;;;;5.43;1.50;;;7.70;1.00;;;;;;5124185;27;20453;-58
2021/01/20 07:11:57;;;;;;;3.80;1.50;;;7.80;1.00;;;;;;5112645;28;20436;-59
2021/01/20 07:14:32;;;;;;;1.20;1.10;;;8.00;1.00;;;;;;5120096;27;20439;-59
2021/01/20 07:16:59;;;;;;;1.50;1.40;;;8.00;1.00;;;;;;5121458;27;20936;-60
2021/01/20 07:19:28;;;;;;;1.60;1.00;;;8.00;1.00;;;;;;5129738;27;20423;-59
2021/01/20 07:21:54;;;;;;;7.93;3.50;;;8.00;1.00;;;;;;5120440;27;20427;-59
2021/01/20 07:24:20;;;;;;;7.10;2.47;;;7.90;1.00;;;;;;5129592;27;20448;-59
2021/01/20 07:26:49;;;;;;;8.17;2.87;;;7.80;1.00;;;;;;5117488;27;20470;-59
2021/01/20 07:29:18;;;;;;;1.70;1.40;;;7.90;1.00;;;;;;5119428;27;20418;-59
2021/01/20 07:31:48;;;;;;;7.60;3.10;;;8.00;1.00;;;;;;5130778;27;20943;-59
2021/01/20 07:34:14;;;;;;;1.47;1.10;;;8.10;1.00;;;;;;5117582;27;20531;-59
2021/01/20 07:36:40;;;;;;;1.40;1.10;;;8.10;1.00;;;;;;5118927;27;20894;-59
2021/01/20 07:39:21;;;;;;;1.03;0.97;;;8.20;1.00;;;;;;5124116;27;20438;-59
2021/01/20 07:41:57;;;;;;;30.00;9.60;;;8.20;1.00;;;;;;5134053;27;20551;-58
2021/01/20 07:44:24;;;;;;;3.17;1.97;;;8.30;1.00;;;;;;5133851;27;20982;-60
2021/01/20 07:47:03;;;;;;;5.00;1.93;;;8.30;1.00;;;;;;5123233;27;20814;-60
2021/01/20 07:49:29;;;;;;;150.67;36.40;;;8.40;1.00;;;;;;5124211;27;20471;-59
2021/01/20 07:52:05;;;;;;;11.20;3.97;;;8.60;1.00;;;;;;5120151;27;20461;-58
2021/01/20 07:54:41;;;;;;;1.70;1.20;;;8.70;1.00;;;;;;5121980;27;20455;-59
2021/01/20 07:57:09;;;;;;;4.37;2.50;;;8.80;1.00;;;;;;5124947;27;20455;-60
2021/01/20 07:59:35;;;;;;;2.00;1.00;;;8.80;1.00;;;;;;5125720;27;20835;-60
2021/01/20 08:02:15;;;;;;;2.17;1.47;;;9.00;1.00;;;;;;5121990;27;20465;-62
2021/01/20 08:04:41;;;;;;;2.87;1.57;;;9.20;1.00;;;;;;5122941;27;20431;-59
2021/01/20 08:07:09;;;;;;;3.07;1.30;;;9.30;1.00;;;;;;5113998;27;20463;-61
2021/01/20 08:09:38;;;;;;;3.23;1.47;;;9.40;1.00;;;;;;5125397;27;20449;-59
2021/01/20 08:12:09;;;;;;;2.43;1.53;;;9.50;1.00;;;;;;5131499;27;20519;-60
2021/01/20 08:14:37;;;;;;;1.50;1.40;;;9.50;1.00;;;;;;5126779;27;20489;-59
2021/01/20 08:17:04;;;;;;;2.40;1.30;;;9.60;1.00;;;;;;5121170;27;20487;-60
2021/01/20 08:19:34;;;;;;;2.70;1.33;;;9.70;1.00;;;;;;5121438;27;20484;-60
2021/01/20 08:22:03;;;;;;;1.33;1.00;;;9.80;1.00;;;;;;5119169;27;20440;-60
2021/01/20 08:24:30;;;;;;;1.90;1.27;;;9.90;1.00;;;;;;5122112;27;20427;-60
2021/01/20 08:26:57;;;;;;;1.03;0.93;;;9.90;1.00;;;;;;5112191;27;20479;-61
2021/01/20 08:29:23;;;;;;;2.50;1.60;;;10.00;1.00;;;;;;5112106;28;20411;-60
2021/01/20 08:32:08;;;;;;;1.50;1.40;;;10.00;1.00;;;;;;5111592;27;20549;-61
2021/01/20 08:34:36;;;;;;;0.90;0.80;;;10.10;1.00;;;;;;5110364;28;20452;-61
2021/01/20 08:37:04;;;;;;;1.67;1.30;;;10.00;1.00;;;;;;5111493;28;20569;-60
2021/01/20 08:39:31;;;;;;;1.47;1.27;;;10.00;1.00;;;;;;5111844;28;20406;-59
2021/01/20 08:42:16;;;;;;;2.17;2.07;;;10.20;1.00;;;;;;5111753;28;20435;-60
2021/01/20 08:45:05;;;;;;;1.27;1.10;;;10.30;1.00;;;;;;5112218;28;20481;-60
2021/01/20 08:47:30;;;;;;;2.87;1.63;;;10.40;1.00;;;;;;5110921;28;20436;-60
2021/01/20 08:49:56;;;;;;;1.33;1.23;;;10.50;1.00;;;;;;5128572;28;20507;-61
2021/01/20 08:52:22;;;;;;;1.60;1.43;;;10.60;1.00;;;;;;5132232;27;20200;-60
2021/01/20 08:54:51;;;;;;;1.10;1.10;;;10.60;1.00;;;;;;5132647;28;20552;-61
2021/01/20 08:57:20;;;;;;;2.37;1.10;;;10.60;1.00;;;;;;5130935;27;20434;-59
2021/01/20 08:59:55;;;;;;;1.60;1.47;;;10.70;1.00;;;;;;5113059;27;20483;-61
2021/01/20 09:02:22;;;;;;;1.83;1.30;;;10.80;1.00;;;;;;5111388;28;20413;-62
2021/01/20 09:04:48;;;;;;;3.00;1.40;;;10.80;1.00;;;;;;5111834;28;20434;-60
2021/01/20 09:07:15;;;;;;;1.33;1.23;;;10.80;1.00;;;;;;5131469;28;20439;-61
2021/01/20 09:09:40;;;;;;;2.83;1.60;;;10.80;1.00;;;;;;5132287;27;20438;-61
2021/01/20 09:12:06;;;;;;;1.30;1.20;;;10.60;1.00;;;;;;5132039;28;20792;-61
2021/01/20 09:14:32;;;;;;;2.23;1.20;;;10.60;1.00;;;;;;5132502;27;20189;-61
2021/01/20 09:17:02;;;;;;;1.70;1.27;;;10.60;1.00;;;;;;5118225;28;20432;-61
2021/01/20 09:19:28;;;;;;;2.30;1.20;;;10.70;1.00;;;;;;5111526;28;20192;-62
2021/01/20 09:21:54;;;;;;;2.10;1.30;;;10.80;1.00;;;;;;5111637;28;20439;-60
2021/01/20 09:24:20;;;;;;;4.20;1.57;;;10.90;1.00;;;;;;5111512;28;20443;-61
2021/01/20 09:26:45;;;;;;;1.17;0.90;;;10.90;1.00;;;;;;5111621;28;20518;-61
2021/01/20 09:29:11;;;;;;;1.20;1.10;;;10.90;1.00;;;;;;5111558;28;20436;-61
2021/01/20 09:31:37;;;;;;;1.57;1.30;;;10.90;1.00;;;;;;5109876;28;20267;-60
2021/01/20 09:34:03;;;;;;;1.97;1.37;;;10.90;1.00;;;;;;5110619;28;20213;-61
2021/01/20 09:36:28;;;;;;;2.83;1.50;;;10.90;1.00;;;;;;5119617;28;20186;-62
2021/01/20 09:38:58;;;;;;;3.67;2.10;;;11.00;1.00;;;;;;5111594;28;20595;-62
2021/01/20 09:41:25;;;;;;;2.83;2.10;;;11.10;1.00;;;;;;5111110;28;20182;-61
2021/01/20 09:43:51;;;;;;;7.03;2.37;;;11.10;1.00;;;;;;5111541;28;20462;-61
2021/01/20 09:46:17;;;;;;;5.70;3.20;;;11.10;1.00;;;;;;5111568;28;20865;-62
2021/01/20 09:48:43;;;;;;;5.90;3.97;;;11.10;1.00;;;;;;5110077;28;20478;-62
2021/01/20 09:51:08;;;;;;;6.90;3.87;;;11.10;1.00;;;;;;5123070;28;20185;-61
2021/01/20 09:53:34;;;;;;;6.70;4.20;;;11.20;1.00;;;;;;5112336;28;20213;-61
2021/01/20 09:56:00;;;;;;;7.37;4.57;;;11.20;1.00;;;;;;5110872;28;20178;-61
2021/01/20 09:58:25;;;;;;;7.30;4.60;;;11.30;1.00;;;;;;5107402;28;20573;-60
2021/01/20 10:00:51;;;;;;;7.83;4.37;;;11.30;1.00;;;;;;5111808;28;20182;-59
2021/01/20 10:03:16;;;;;;;5.90;3.63;;;11.30;1.00;;;;;;5115417;27;20181;-60
2021/01/20 10:05:42;;;;;;;4.93;3.70;;;11.40;1.00;;;;;;5113978;28;20283;-60
2021/01/20 10:08:07;;;;;;;5.80;3.47;;;11.30;1.00;;;;;;5114666;28;20683;-61
2021/01/20 10:10:33;;;;;;;3.87;2.70;;;11.40;1.00;;;;;;5114425;28;20585;-61
2021/01/20 10:12:59;;;;;;;6.67;3.10;;;11.30;1.00;;;;;;5108467;28;20693;-62
2021/01/20 10:15:24;;;;;;;5.27;2.77;;;11.30;1.00;;;;;;5112320;28;20666;-61
2021/01/20 10:17:52;;;;;;;5.57;3.00;;;11.40;1.00;;;;;;5113186;28;20192;-58
2021/01/20 10:20:17;;;;;;;3.33;2.30;;;11.50;1.00;;;;;;5108825;28;20633;-60
2021/01/20 10:22:43;;;;;;;3.53;2.23;;;11.50;1.00;;;;;;5112826;28;20416;-61
2021/01/20 10:25:09;;;;;;;3.53;2.27;;;11.60;1.00;;;;;;5113753;28;20235;-61
2021/01/20 10:27:35;;;;;;;3.00;2.20;;;11.60;1.00;;;;;;5111885;28;20235;-60
2021/01/20 10:30:01;;;;;;;4.80;2.50;;;11.60;1.00;;;;;;5111039;28;20444;-60
2021/01/20 10:32:26;;;;;;;2.57;2.20;;;11.60;1.00;;;;;;5114255;28;20262;-61
2021/01/20 10:34:52;;;;;;;4.90;2.57;;;11.70;1.00;;;;;;5114157;28;20758;-62
2021/01/20 10:37:17;;;;;;;2.70;2.33;;;11.70;1.00;;;;;;5110378;28;20209;-59
2021/01/20 10:39:45;;;;;;;3.90;2.57;;;11.70;1.00;;;;;;5111341;28;20628;-60
2021/01/20 10:42:10;;;;;;;2.90;2.30;;;11.50;1.00;;;;;;5111879;28;20281;-60
2021/01/20 10:44:36;;;;;;;3.90;2.30;;;11.50;1.00;;;;;;5110430;28;20538;-61
2021/01/20 10:47:02;;;;;;;3.83;2.13;;;11.50;1.00;;;;;;5114172;27;20549;-60
2021/01/20 10:49:27;;;;;;;3.63;2.33;;;11.50;1.00;;;;;;5113971;28;20185;-60
2021/01/20 10:51:53;;;;;;;4.43;2.70;;;11.50;1.00;;;;;;5113850;28;20185;-60
2021/01/20 10:54:18;;;;;;;5.13;2.40;;;11.50;1.00;;;;;;5111708;28;20194;-62
2021/01/20 10:56:44;;;;;;;4.10;2.27;;;11.60;1.00;;;;;;5107092;28;20539;-60
2021/01/20 10:59:10;;;;;;;5.40;2.70;;;11.60;1.00;;;;;;5110748;27;20190;-61
2021/01/20 11:01:37;;;;;;;4.60;2.37;;;11.70;1.00;;;;;;5111091;28;20264;-60
2021/01/20 11:04:03;;;;;;;3.77;2.43;;;11.70;1.00;;;;;;5113846;28;20178;-60
2021/01/20 11:06:28;;;;;;;3.50;2.30;;;11.80;1.00;;;;;;5113845;28;20880;-61
2021/01/20 11:08:56;;;;;;;2.93;2.63;;;11.90;1.00;;;;;;5113509;28;20227;-61
2021/01/20 11:11:22;;;;;;;3.57;2.37;;;12.00;1.00;;;;;;5113185;28;20182;-60
2021/01/20 11:13:47;;;;;;;3.53;2.30;;;12.10;1.00;;;;;;5108559;28;20457;-60
2021/01/20 11:16:13;;;;;;;3.30;2.40;;;12.00;1.00;;;;;;5113723;28;20176;-60
2021/01/20 11:18:39;;;;;;;4.17;2.70;;;12.10;1.00;;;;;;5113497;28;20183;-60
2021/01/20 11:21:05;;;;;;;8.20;3.27;;;12.20;1.00;;;;;;5132525;27;20867;-60
2021/01/20 11:23:36;;;;;;;6.93;2.73;;;12.20;1.00;;;;;;5133697;27;20198;-62
2021/01/20 11:26:04;;;;;;;7.37;2.63;;;12.20;1.00;;;;;;5133870;27;20427;-60
2021/01/20 11:28:30;;;;;;;4.40;2.77;;;12.50;1.00;;;;;;5121778;27;20763;-60
2021/01/20 11:30:56;;;;;;;5.00;3.20;;;12.50;1.00;;;;;;5112869;28;20450;-60
2021/01/20 11:33:21;;;;;;;5.33;2.90;;;12.70;1.00;;;;;;5110798;28;20460;-61
2021/01/20 11:35:47;;;;;;;3.80;2.80;;;12.70;1.00;;;;;;5117921;27;20171;-61
2021/01/20 11:38:13;;;;;;;5.03;3.40;;;12.50;1.00;;;;;;5133638;27;20193;-60
2021/01/20 11:40:38;;;;;;;7.47;3.77;;;12.70;1.00;;;;;;5107550;28;20315;-60
2021/01/20 11:43:06;;;;;;;5.67;3.37;;;13.00;1.00;;;;;;5112715;28;20180;-63
2021/01/20 11:45:36;;;;;;;6.27;4.80;;;13.10;1.00;;;;;;5112639;28;20206;-61
2021/01/20 11:48:03;;;;;;;4.73;3.67;;;12.90;1.00;;;;;;5110647;28;20970;-63
2021/01/20 11:50:29;;;;;;;5.70;5.20;;;12.90;1.00;;;;;;5112752;28;20432;-63
2021/01/20 11:52:55;;;;;;;5.33;3.60;;;12.90;1.00;;;;;;5107551;28;20510;-62
2021/01/20 11:55:22;;;;;;;3.70;2.67;;;12.90;1.00;;;;;;5109808;28;20171;-61
2021/01/20 11:57:48;;;;;;;3.47;2.47;;;12.90;1.00;;;;;;5109060;28;20688;-64
2021/01/20 12:00:15;;;;;;;3.00;2.40;;;13.00;1.00;;;;;;5111859;28;20813;-63
2021/01/20 12:02:41;;;;;;;2.33;1.60;;;13.10;1.00;;;;;;5112525;28;20433;-64
2021/01/20 12:05:09;;;;;;;3.57;2.40;;;13.10;1.00;;;;;;5108764;28;20938;-63
2021/01/20 12:07:39;;;;;;;2.20;2.00;;;13.20;1.00;;;;;;5107592;28;20874;-59
2021/01/20 12:10:06;;;;;;;2.53;1.80;;;13.20;1.00;;;;;;5110811;28;20946;-61
2021/01/20 12:12:32;;;;;;;1.93;1.40;;;13.30;1.00;;;;;;5112109;28;20442;-60
2021/01/20 12:14:57;;;;;;;2.00;1.57;;;13.40;1.00;;;;;;5112284;28;20425;-60
2021/01/20 12:17:23;;;;;;;2.50;1.50;;;13.30;1.00;;;;;;5112267;28;20676;-62
2021/01/20 12:19:49;;;;;;;2.07;1.53;;;13.20;1.00;;;;;;5109403;28;20213;-60
2021/01/20 12:22:15;;;;;;;2.07;1.67;;;13.10;1.00;;;;;;5110304;28;20171;-60
2021/01/20 12:24:40;;;;;;;3.20;1.30;;;13.10;1.00;;;;;;5110746;28;20692;-61
2021/01/20 12:27:06;;;;;;;2.37;1.33;;;13.20;1.00;;;;;;5112105;28;20304;-60
2021/01/20 12:29:32;;;;;;;3.23;1.20;;;13.10;1.00;;;;;;5111967;28;20212;-60
2021/01/20 12:31:57;;;;;;;2.47;1.27;;;13.10;1.00;;;;;;5112114;28;20693;-61
2021/01/20 12:34:23;;;;;;;1.73;1.40;;;13.20;1.00;;;;;;5111959;28;20179;-60
2021/01/20 12:36:49;;;;;;;2.63;1.50;;;13.10;1.00;;;;;;5111280;27;20247;-61
2021/01/20 12:39:15;;;;;;;1.63;1.50;;;13.10;1.00;;;;;;5110483;28;20270;-60
2021/01/20 12:41:41;;;;;;;2.87;1.90;;;13.10;1.00;;;;;;5112001;28;20489;-61
2021/01/20 12:44:07;;;;;;;13.27;6.73;;;13.10;1.00;;;;;;5109098;28;20522;-61
2021/01/20 12:46:33;;;;;;;4.50;2.13;;;12.70;1.00;;;;;;5110521;28;20419;-60
2021/01/20 12:48:59;;;;;;;11.83;4.33;;;12.40;1.00;;;;;;5110157;28;20975;-60
2021/01/20 12:51:25;;;;;;;16.07;7.20;;;12.20;1.00;;;;;;5111916;28;20205;-60
2021/01/20 12:53:50;;;;;;;38.03;13.40;;;12.00;1.00;;;;;;5111124;28;20921;-61
2021/01/20 12:56:19;;;;;;;18.53;4.57;;;11.90;1.00;;;;;;5129930;27;20234;-62
2021/01/20 12:58:45;;;;;;;7.73;3.17;;;11.70;1.00;;;;;;5131127;27;20664;-62
2021/01/20 13:01:10;;;;;;;12.73;5.80;;;11.60;1.00;;;;;;5132062;28;20469;-61
2021/01/20 13:03:36;;;;;;;20.53;9.27;;;11.60;1.00;;;;;;5132097;28;20197;-61
2021/01/20 13:06:01;;;;;;;12.27;4.90;;;11.60;1.00;;;;;;5114911;28;20230;-62
2021/01/20 13:08:27;;;;;;;13.77;7.17;;;11.50;1.00;;;;;;5111477;28;20209;-60